createdAt,value
2019-04-11T00:00:24.274Z,0.00
2019-04-11T00:01:35.801Z,0.00
2019-04-11T00:02:24.935Z,0.00
2019-04-11T00:03:25.015Z,0.00
2019-04-11T00:04:24.254Z,0.00
2019-04-11T00:05:23.895Z,0.00
2019-04-11T00:06:23.914Z,0.00
2019-04-11T00:07:24.589Z,0.00
2019-04-11T00:08:23.858Z,0.00
2019-04-11T00:09:24.875Z,0.00
2019-04-11T00:10:24.907Z,0.00
2019-04-11T00:11:24.004Z,0.00
2019-04-11T00:12:24.305Z,0.00
2019-04-11T00:13:26.911Z,0.00
2019-04-11T00:14:24.204Z,0.00
2019-04-11T00:15:24.489Z,0.00
2019-04-11T00:16:23.799Z,0.00
2019-04-11T00:17:23.793Z,0.00
2019-04-11T00:18:24.919Z,0.00
2019-04-11T00:19:23.753Z,0.00
2019-04-11T00:20:24.258Z,0.00
2019-04-11T00:21:24.607Z,0.00
2019-04-11T00:22:23.717Z,0.00
2019-04-11T00:23:23.969Z,0.00
2019-04-11T00:24:24.975Z,0.00
2019-04-11T00:25:23.669Z,0.00
2019-04-11T00:26:24.420Z,0.00
2019-04-11T00:27:24.563Z,0.00
2019-04-11T00:28:23.758Z,0.00
2019-04-11T00:29:23.636Z,0.00
2019-04-11T00:30:24.027Z,0.00
2019-04-11T00:31:23.601Z,0.00
2019-04-11T00:32:23.605Z,0.00
2019-04-11T00:33:24.678Z,0.00
2019-04-11T00:34:23.738Z,0.00
2019-04-11T00:35:23.836Z,0.00
2019-04-11T00:36:24.199Z,0.00
2019-04-11T00:37:23.544Z,0.00
2019-04-11T00:38:23.596Z,0.00
2019-04-11T00:39:23.670Z,0.00
2019-04-11T00:40:23.529Z,0.00
2019-04-11T00:41:23.913Z,0.00
2019-04-11T00:42:23.574Z,0.00
2019-04-11T00:43:31.835Z,0.00
2019-04-11T00:44:25.102Z,0.00
2019-04-11T00:45:23.485Z,0.00
2019-04-11T00:46:24.482Z,0.00
2019-04-11T00:47:23.439Z,0.00
2019-04-11T00:48:23.878Z,0.00
2019-04-11T00:49:24.200Z,0.00
2019-04-11T00:50:23.439Z,0.00
2019-04-11T00:51:23.620Z,0.00
2019-04-11T00:52:23.431Z,0.00
2019-04-11T00:53:23.370Z,0.00
2019-04-11T00:54:23.359Z,0.00
2019-04-11T00:55:23.820Z,0.00
2019-04-11T00:56:24.154Z,0.00
2019-04-11T00:57:23.380Z,0.00
2019-04-11T00:58:23.534Z,0.00
2019-04-11T00:59:24.509Z,0.00
2019-04-11T01:00:23.310Z,0.00
2019-04-11T01:01:23.929Z,0.00
2019-04-11T01:02:23.331Z,0.00
2019-04-11T01:03:24.242Z,0.00
2019-04-11T01:04:23.491Z,0.00
2019-04-11T01:05:23.551Z,0.00
2019-04-11T01:06:23.241Z,0.00
2019-04-11T01:07:23.242Z,0.00
2019-04-11T01:08:23.943Z,0.00
2019-04-11T01:09:24.189Z,0.00
2019-04-11T01:10:24.421Z,0.00
2019-04-11T01:11:23.796Z,0.00
2019-04-11T01:12:23.198Z,0.00
2019-04-11T01:13:23.818Z,0.00
2019-04-11T01:14:23.728Z,0.00
2019-04-11T01:15:23.772Z,0.00
2019-04-11T01:16:23.549Z,0.00
2019-04-11T01:17:23.349Z,0.00
2019-04-11T01:18:23.109Z,0.00
2019-04-11T01:19:23.124Z,0.00
2019-04-11T01:20:23.833Z,0.00
2019-04-11T01:21:24.195Z,0.00
2019-04-11T01:22:24.332Z,0.00
2019-04-11T01:23:23.050Z,0.00
2019-04-11T01:24:23.847Z,0.00
2019-04-11T01:25:24.308Z,0.00
2019-04-11T01:26:23.305Z,0.00
2019-04-11T01:27:23.713Z,0.00
2019-04-11T01:28:23.054Z,0.00
2019-04-11T01:29:23.082Z,0.00
2019-04-11T01:30:22.991Z,0.00
2019-04-11T01:31:22.985Z,0.00
2019-04-11T01:32:22.978Z,0.00
2019-04-11T01:33:24.050Z,0.00
2019-04-11T01:34:22.984Z,0.00
2019-04-11T01:35:23.534Z,0.00
2019-04-11T01:36:22.921Z,0.00
2019-04-11T01:37:23.897Z,0.00
2019-04-11T01:38:24.222Z,0.00
2019-04-11T01:39:23.274Z,0.00
2019-04-11T01:40:23.434Z,0.00
2019-04-11T01:41:22.885Z,0.00
2019-04-11T01:42:22.881Z,0.00
2019-04-11T01:43:24.032Z,0.00
2019-04-11T01:44:22.837Z,0.00
2019-04-11T01:45:22.857Z,0.00
2019-04-11T01:46:22.829Z,0.00
2019-04-11T01:47:22.798Z,0.00
2019-04-11T01:48:23.713Z,0.00
2019-04-11T01:49:23.955Z,0.00
2019-04-11T01:50:23.063Z,0.00
2019-04-11T01:51:23.373Z,0.00
2019-04-11T01:52:22.775Z,0.00
2019-04-11T01:53:22.749Z,0.00
2019-04-11T01:54:23.753Z,0.00
2019-04-11T01:55:22.711Z,0.00
2019-04-11T01:56:23.206Z,0.00
2019-04-11T01:57:22.707Z,0.00
2019-04-11T01:58:22.697Z,0.00
2019-04-11T01:59:23.613Z,0.00
2019-04-11T02:00:22.669Z,0.00
2019-04-11T02:01:23.013Z,0.00
2019-04-11T02:02:22.730Z,0.00
2019-04-11T02:03:23.324Z,0.00
2019-04-11T02:04:23.680Z,0.00
2019-04-11T02:05:23.052Z,0.00
2019-04-11T02:06:23.660Z,0.00
2019-04-11T02:07:22.655Z,0.00
2019-04-11T02:08:23.055Z,0.00
2019-04-11T02:09:22.569Z,0.00
2019-04-11T02:10:22.574Z,0.00
2019-04-11T02:11:23.472Z,0.00
2019-04-11T02:12:22.579Z,0.00
2019-04-11T02:13:22.535Z,0.00
2019-04-11T02:14:23.007Z,0.00
2019-04-11T02:15:22.503Z,0.00
2019-04-11T02:16:23.074Z,0.00
2019-04-11T02:17:22.495Z,0.00
2019-04-11T02:18:23.514Z,0.00
2019-04-11T02:19:22.477Z,0.00
2019-04-11T02:20:23.015Z,0.00
2019-04-11T02:21:22.455Z,0.00
2019-04-11T02:22:22.429Z,0.00
2019-04-11T02:23:23.367Z,0.00
2019-04-11T02:24:23.478Z,0.00
2019-04-11T02:25:22.674Z,0.00
2019-04-11T02:26:22.390Z,0.00
2019-04-11T02:27:23.121Z,0.00
2019-04-11T02:28:22.533Z,0.00
2019-04-11T02:29:23.443Z,0.00
2019-04-11T02:30:22.986Z,0.00
2019-04-11T02:31:23.220Z,0.00
2019-04-11T02:32:24.622Z,0.00
2019-04-11T02:33:24.256Z,0.00
2019-04-11T02:34:23.460Z,0.00
2019-04-11T02:35:24.149Z,0.00
2019-04-11T02:36:22.474Z,0.00
2019-04-11T02:37:24.068Z,0.00
2019-04-11T02:38:24.316Z,0.00
2019-04-11T02:39:24.474Z,0.00
2019-04-11T02:40:24.425Z,0.00
2019-04-11T02:41:22.238Z,0.00
2019-04-11T02:42:23.380Z,0.00
2019-04-11T02:43:22.955Z,0.00
2019-04-11T02:44:46.115Z,0.00
2019-04-11T02:45:36.205Z,0.00
2019-04-11T02:46:34.694Z,0.00
2019-04-11T02:47:27.626Z,0.00
2019-04-11T02:48:24.491Z,0.00
2019-04-11T02:49:23.779Z,0.00
2019-04-11T02:50:25.419Z,0.00
2019-04-11T02:51:22.854Z,0.00
2019-04-11T02:52:22.942Z,0.00
2019-04-11T02:53:23.744Z,0.00
2019-04-11T02:54:24.413Z,0.00
2019-04-11T02:55:22.107Z,0.00
2019-04-11T02:56:23.888Z,0.00
2019-04-11T02:57:23.410Z,0.00
2019-04-11T02:58:23.083Z,0.00
2019-04-11T02:59:22.097Z,0.00
2019-04-11T03:00:22.058Z,0.00
2019-04-11T03:01:22.064Z,0.00
2019-04-11T03:02:23.912Z,0.00
2019-04-11T03:03:23.242Z,0.00
2019-04-11T03:04:24.007Z,0.00
2019-04-11T03:05:22.063Z,0.00
2019-04-11T03:06:23.349Z,0.00
2019-04-11T03:07:22.739Z,0.00
2019-04-11T03:08:22.724Z,0.00
2019-04-11T03:09:23.641Z,0.00
2019-04-11T03:10:22.264Z,0.00
2019-04-11T03:11:24.157Z,0.00
2019-04-11T03:12:23.442Z,0.00
2019-04-11T03:13:23.284Z,0.00
2019-04-11T03:14:23.270Z,0.00
2019-04-11T03:15:37.557Z,0.00
2019-04-11T03:16:36.741Z,0.00
2019-04-11T03:17:27.503Z,0.00
2019-04-11T03:18:40.618Z,0.00
2019-04-11T03:19:37.480Z,0.00
2019-04-11T03:20:31.305Z,0.00
2019-04-11T03:21:25.957Z,0.00
2019-04-11T03:22:22.623Z,0.00
2019-04-11T03:23:23.559Z,0.00
2019-04-11T03:24:22.590Z,0.00
2019-04-11T03:25:22.587Z,0.00
2019-04-11T03:26:21.810Z,0.00
2019-04-11T03:27:22.558Z,0.00
2019-04-11T03:28:27.076Z,0.00
2019-04-11T03:29:24.302Z,0.00
2019-04-11T03:30:34.458Z,0.00
2019-04-11T03:33:29.834Z,0.00
2019-04-11T03:34:18.658Z,0.00
2019-04-11T03:35:11.952Z,0.00
2019-04-11T03:37:15.844Z,0.00
2019-04-11T03:37:47.782Z,0.00
2019-04-11T03:38:43.667Z,0.00
2019-04-11T03:39:48.890Z,0.00
2019-04-11T03:40:44.279Z,0.00
2019-04-11T03:41:38.805Z,0.00
2019-04-11T03:42:41.703Z,0.00
2019-04-11T03:43:34.451Z,0.00
2019-04-11T03:44:30.443Z,0.00
2019-04-11T03:45:43.456Z,0.00
2019-04-11T03:46:38.081Z,0.00
2019-04-11T03:47:34.764Z,0.00
2019-04-11T03:48:36.901Z,0.00
2019-04-11T03:49:31.658Z,0.00
2019-04-11T03:50:26.049Z,0.00
2019-04-11T03:51:22.811Z,0.00
2019-04-11T03:52:21.492Z,0.00
2019-04-11T03:53:23.507Z,0.00
2019-04-11T03:54:23.107Z,0.00
2019-04-11T03:55:21.992Z,0.00
2019-04-11T03:56:22.060Z,0.00
2019-04-11T03:57:21.679Z,0.00
2019-04-11T03:58:22.152Z,0.00
2019-04-11T03:59:23.404Z,0.00
2019-04-11T04:00:22.161Z,0.00
2019-04-11T04:01:23.247Z,0.00
2019-04-11T04:02:22.475Z,0.00
2019-04-11T04:03:22.471Z,0.00
2019-04-11T04:04:21.859Z,0.00
2019-04-11T04:05:21.778Z,0.00
2019-04-11T04:06:23.148Z,0.00
2019-04-11T04:07:21.573Z,0.00
2019-04-11T04:08:22.465Z,4.00
2019-04-11T04:09:21.434Z,4.00
2019-04-11T04:10:21.302Z,0.00
2019-04-11T04:11:23.144Z,0.00
2019-04-11T04:12:22.656Z,4.00
2019-04-11T04:13:22.684Z,0.00
2019-04-11T04:14:21.507Z,4.00
2019-04-11T04:15:36.101Z,4.00
2019-04-11T04:16:29.380Z,4.00
2019-04-11T04:17:23.627Z,8.00
2019-04-11T04:18:21.400Z,4.00
2019-04-11T04:19:22.511Z,8.00
2019-04-11T04:20:21.507Z,8.00
2019-04-11T04:21:22.678Z,12.00
2019-04-11T04:22:22.899Z,12.00
2019-04-11T04:23:21.553Z,16.00
2019-04-11T04:24:22.759Z,20.00
2019-04-11T04:25:21.409Z,24.00
2019-04-11T04:26:21.152Z,28.00
2019-04-11T04:27:23.240Z,32.00
2019-04-11T04:28:21.887Z,36.00
2019-04-11T04:29:21.915Z,44.00
2019-04-11T04:30:21.951Z,52.00
2019-04-11T04:31:22.540Z,60.00
2019-04-11T04:32:23.022Z,72.00
2019-04-11T04:33:22.807Z,80.00
2019-04-11T04:34:21.828Z,92.00
2019-04-11T04:35:23.144Z,108.00
2019-04-11T04:36:22.368Z,124.00
2019-04-11T04:37:22.385Z,140.00
2019-04-11T04:38:21.218Z,160.00
2019-04-11T04:39:22.714Z,180.00
2019-04-11T04:40:36.025Z,200.00
2019-04-11T04:41:30.846Z,224.00
2019-04-11T04:42:30.746Z,252.00
2019-04-11T04:43:22.778Z,276.00
2019-04-11T04:44:22.899Z,308.00
2019-04-11T04:45:21.492Z,340.00
2019-04-11T04:46:34.809Z,376.00
2019-04-11T04:47:30.456Z,412.00
2019-04-11T04:48:24.327Z,452.00
2019-04-11T04:49:21.311Z,492.00
2019-04-11T04:50:22.429Z,536.00
2019-04-11T04:51:24.082Z,584.00
2019-04-11T04:52:21.421Z,632.00
2019-04-11T04:53:23.494Z,688.00
2019-04-11T04:54:22.156Z,740.00
2019-04-11T04:55:21.619Z,800.00
2019-04-11T04:56:25.998Z,864.00
2019-04-11T04:57:21.941Z,928.00
2019-04-11T04:58:22.245Z,996.00
2019-04-11T04:59:21.607Z,1064.00
2019-04-11T05:00:20.969Z,1140.00
2019-04-11T05:01:21.714Z,1220.00
2019-04-11T05:02:21.203Z,1304.00
2019-04-11T05:03:22.191Z,1388.00
2019-04-11T05:04:21.064Z,1476.00
2019-04-11T05:05:22.012Z,1568.00
2019-04-11T05:06:20.831Z,1660.00
2019-04-11T05:07:20.952Z,1756.00
2019-04-11T05:08:20.874Z,1852.00
2019-04-11T05:09:21.319Z,1956.00
2019-04-11T05:10:22.036Z,2052.00
2019-04-11T05:11:20.671Z,2156.00
2019-04-11T05:12:20.747Z,2264.00
2019-04-11T05:13:21.667Z,2372.00
2019-04-11T05:14:21.044Z,2480.00
2019-04-11T05:15:20.916Z,2596.00
2019-04-11T05:16:20.641Z,2712.00
2019-04-11T05:17:20.595Z,2832.00
2019-04-11T05:18:21.313Z,2956.00
2019-04-11T05:19:22.017Z,3076.00
2019-04-11T05:20:21.841Z,3204.00
2019-04-11T05:21:21.301Z,3332.00
2019-04-11T05:22:20.552Z,3464.00
2019-04-11T05:23:21.407Z,3604.00
2019-04-11T05:24:20.860Z,3740.00
2019-04-11T05:25:20.601Z,3872.00
2019-04-11T05:26:21.564Z,4008.00
2019-04-11T05:27:20.932Z,4152.00
2019-04-11T05:28:21.441Z,4284.00
2019-04-11T05:29:21.583Z,4420.00
2019-04-11T05:30:20.472Z,4548.00
2019-04-11T05:31:20.702Z,4684.00
2019-04-11T05:32:20.468Z,4824.00
2019-04-11T05:33:21.257Z,4960.00
2019-04-11T05:34:20.416Z,5112.00
2019-04-11T05:35:20.425Z,5264.00
2019-04-11T05:36:20.697Z,5408.00
2019-04-11T05:37:20.792Z,5564.00
2019-04-11T05:38:20.953Z,5728.00
2019-04-11T05:39:20.363Z,5884.00
2019-04-11T05:40:21.090Z,6052.00
2019-04-11T05:41:22.022Z,6220.00
2019-04-11T05:42:24.962Z,6384.00
2019-04-11T05:43:22.520Z,6544.00
2019-04-11T05:44:21.329Z,6684.00
2019-04-11T05:45:22.643Z,6832.00
2019-04-11T05:46:31.114Z,6992.00
2019-04-11T05:47:21.443Z,7148.00
2019-04-11T05:48:23.990Z,7316.00
2019-04-11T05:49:22.851Z,7452.00
2019-04-11T05:50:20.254Z,7596.00
2019-04-11T05:51:22.375Z,7788.00
2019-04-11T05:52:20.224Z,7996.00
2019-04-11T05:53:21.325Z,8152.00
2019-04-11T05:54:20.425Z,8316.00
2019-04-11T05:55:20.201Z,8536.00
2019-04-11T05:56:20.778Z,8788.00
2019-04-11T05:57:23.740Z,9036.00
2019-04-11T05:58:20.189Z,9268.00
2019-04-11T05:59:21.479Z,9504.00
2019-04-11T06:00:21.415Z,9696.00
2019-04-11T06:01:20.368Z,9904.00
2019-04-11T06:02:21.112Z,10048.00
2019-04-11T06:03:20.116Z,10304.00
2019-04-11T06:04:22.405Z,10564.00
2019-04-11T06:05:23.856Z,13668.00
2019-04-11T06:06:21.070Z,25344.00
2019-04-11T06:07:20.949Z,37504.00
2019-04-11T06:08:24.123Z,44800.00
2019-04-11T06:09:21.042Z,44416.00
2019-04-11T06:10:20.105Z,33600.00
2019-04-11T06:11:23.679Z,38304.00
2019-04-11T06:12:21.060Z,46400.00
2019-04-11T06:13:20.598Z,48256.00
2019-04-11T06:14:19.984Z,47008.00
2019-04-11T06:15:21.387Z,48640.00
2019-04-11T06:16:20.830Z,49760.00
2019-04-11T06:17:19.978Z,48608.00
2019-04-11T06:18:27.875Z,51008.00
2019-04-11T06:19:20.965Z,51392.00
2019-04-11T06:20:19.960Z,51040.00
2019-04-11T06:21:20.015Z,51744.00
2019-04-11T06:22:19.981Z,54080.00
2019-04-11T06:23:19.892Z,56864.00
2019-04-11T06:24:20.294Z,56736.00
2019-04-11T06:25:19.868Z,56448.00
2019-04-11T06:26:21.338Z,55648.00
2019-04-11T06:27:20.046Z,54336.00
2019-04-11T06:28:20.140Z,53984.00
2019-04-11T06:29:24.313Z,47424.00
2019-04-11T06:30:21.000Z,29600.00
2019-04-11T06:31:20.170Z,16864.00
2019-04-11T06:32:19.815Z,16352.00
2019-04-11T06:33:20.598Z,16416.00
2019-04-11T06:34:21.219Z,16244.00
2019-04-11T06:35:19.981Z,16260.00
2019-04-11T06:36:20.892Z,16512.00
2019-04-11T06:37:19.743Z,16388.00
2019-04-11T06:38:20.544Z,16640.00
2019-04-11T06:39:21.035Z,16704.00
2019-04-11T06:40:20.171Z,16896.00
2019-04-11T06:41:19.696Z,17056.00
2019-04-11T06:42:19.689Z,17216.00
2019-04-11T06:43:20.294Z,17376.00
2019-04-11T06:44:19.664Z,17536.00
2019-04-11T06:45:19.769Z,17856.00
2019-04-11T06:46:20.750Z,18368.00
2019-04-11T06:47:20.871Z,32960.00
2019-04-11T06:48:22.251Z,55360.00
2019-04-11T06:49:20.399Z,67200.00
2019-04-11T06:50:19.613Z,67936.00
2019-04-11T06:51:19.872Z,69312.00
2019-04-11T06:52:19.629Z,67328.00
2019-04-11T06:53:19.570Z,68768.00
2019-04-11T06:54:19.576Z,69632.00
2019-04-11T06:55:20.353Z,70496.00
2019-04-11T06:56:19.535Z,70528.00
2019-04-11T06:57:19.524Z,69216.00
2019-04-11T06:58:19.543Z,69344.00
2019-04-11T06:59:20.561Z,67136.00
2019-04-11T07:00:19.498Z,68608.00
2019-04-11T07:01:20.326Z,71904.00
2019-04-11T07:02:21.879Z,72576.00
2019-04-11T07:03:23.179Z,73344.00
2019-04-11T07:04:21.737Z,74080.00
2019-04-11T07:05:19.441Z,72096.00
2019-04-11T07:06:19.643Z,70848.00
2019-04-11T07:07:20.485Z,71872.00
2019-04-11T07:08:20.233Z,70528.00
2019-04-11T07:09:20.160Z,69568.00
2019-04-11T07:10:20.231Z,67872.00
2019-04-11T07:11:19.898Z,71200.00
2019-04-11T07:12:19.373Z,72224.00
2019-04-11T07:13:20.624Z,71968.00
2019-04-11T07:14:20.386Z,74976.00
2019-04-11T07:15:19.349Z,79552.00
2019-04-11T07:16:20.030Z,79936.00
2019-04-11T07:17:19.318Z,78528.00
2019-04-11T07:18:20.483Z,80224.00
2019-04-11T07:19:19.841Z,63840.00
2019-04-11T07:20:19.301Z,28512.00
2019-04-11T07:21:19.276Z,21216.00
2019-04-11T07:22:19.286Z,20800.00
2019-04-11T07:23:20.108Z,20480.00
2019-04-11T07:24:20.298Z,20416.00
2019-04-11T07:25:20.274Z,20352.00
2019-04-11T07:26:19.244Z,20352.00
2019-04-11T07:27:20.159Z,20352.00
2019-04-11T07:28:19.267Z,20320.00
2019-04-11T07:29:19.441Z,20256.00
2019-04-11T07:30:19.354Z,20320.00
2019-04-11T07:31:19.390Z,20288.00
2019-04-11T07:32:20.214Z,20352.00
2019-04-11T07:33:20.154Z,20512.00
2019-04-11T07:34:19.484Z,20864.00
2019-04-11T07:35:19.371Z,27136.00
2019-04-11T07:36:20.870Z,64640.00
2019-04-11T07:37:19.232Z,78400.00
2019-04-11T07:38:19.101Z,80704.00
2019-04-11T07:39:20.161Z,84800.00
2019-04-11T07:40:19.155Z,82336.00
2019-04-11T07:41:19.536Z,87168.00
2019-04-11T07:42:19.052Z,90336.00
2019-04-11T07:43:19.494Z,83296.00
2019-04-11T07:44:19.613Z,90496.00
2019-04-11T07:45:19.037Z,87104.00
2019-04-11T07:46:19.090Z,86336.00
2019-04-11T07:47:22.196Z,90272.00
2019-04-11T07:48:19.992Z,86336.00
2019-04-11T07:49:19.905Z,91200.00
2019-04-11T07:50:19.841Z,90432.00
2019-04-11T07:51:19.637Z,91424.00
2019-04-11T07:52:18.954Z,84640.00
2019-04-11T07:53:19.712Z,86048.00
2019-04-11T07:54:20.130Z,81536.00
2019-04-11T07:55:18.995Z,54752.00
2019-04-11T07:56:18.916Z,28544.00
2019-04-11T07:57:19.332Z,21728.00
2019-04-11T07:58:19.407Z,21440.00
2019-04-11T07:59:19.586Z,21312.00
2019-04-11T08:00:19.364Z,21120.00
2019-04-11T08:01:21.069Z,20992.00
2019-04-11T08:02:18.908Z,20992.00
2019-04-11T08:03:19.202Z,20992.00
2019-04-11T08:04:19.456Z,20928.00
2019-04-11T08:05:19.245Z,20896.00
2019-04-11T08:06:19.819Z,20832.00
2019-04-11T08:07:19.866Z,20864.00
2019-04-11T08:08:18.801Z,20928.00
2019-04-11T08:09:18.809Z,20896.00
2019-04-11T08:10:18.766Z,20928.00
2019-04-11T08:11:19.772Z,20960.00
2019-04-11T08:12:18.753Z,20992.00
2019-04-11T08:13:18.729Z,21056.00
2019-04-11T08:14:18.759Z,21152.00
2019-04-11T08:15:19.629Z,21248.00
2019-04-11T08:16:18.701Z,21312.00
2019-04-11T08:17:27.971Z,21440.00
2019-04-11T08:18:20.799Z,21600.00
2019-04-11T08:19:20.737Z,22144.00
2019-04-11T08:20:19.406Z,33952.00
2019-04-11T08:21:19.723Z,62784.00
2019-04-11T08:22:19.014Z,81984.00
2019-04-11T08:23:19.401Z,76736.00
2019-04-11T08:24:18.624Z,73856.00
2019-04-11T08:25:18.608Z,72480.00
2019-04-11T08:26:18.636Z,77376.00
2019-04-11T08:27:19.645Z,85024.00
2019-04-11T08:28:18.656Z,86528.00
2019-04-11T08:29:18.561Z,87296.00
2019-04-11T08:30:19.042Z,86208.00
2019-04-11T08:31:19.387Z,86720.00
2019-04-11T08:32:19.875Z,86784.00
2019-04-11T08:33:18.525Z,88064.00
2019-04-11T08:34:20.198Z,90816.00
2019-04-11T08:35:19.768Z,88864.00
2019-04-11T08:36:19.748Z,85504.00
2019-04-11T08:37:19.326Z,84512.00
2019-04-11T08:38:18.637Z,82336.00
2019-04-11T08:39:18.452Z,81472.00
2019-04-11T08:40:19.634Z,85408.00
2019-04-11T08:41:19.689Z,86944.00
2019-04-11T08:42:18.432Z,85376.00
2019-04-11T08:43:19.236Z,90016.00
2019-04-11T08:44:19.427Z,89600.00
2019-04-11T08:45:19.611Z,86912.00
2019-04-11T08:46:18.544Z,85056.00
2019-04-11T08:47:18.421Z,85472.00
2019-04-11T08:48:19.169Z,85696.00
2019-04-11T08:49:18.367Z,88416.00
2019-04-11T08:50:18.622Z,39200.00
2019-04-11T08:51:19.191Z,30272.00
2019-04-11T08:52:18.412Z,77088.00
2019-04-11T08:53:18.636Z,82144.00
2019-04-11T08:54:19.441Z,82496.00
2019-04-11T08:55:19.018Z,87616.00
2019-04-11T08:56:18.984Z,89696.00
2019-04-11T08:57:18.274Z,87648.00
2019-04-11T08:58:18.348Z,86848.00
2019-04-11T08:59:18.929Z,90176.00
2019-04-11T09:00:18.255Z,89856.00
2019-04-11T09:01:18.258Z,83168.00
2019-04-11T09:02:18.513Z,28576.00
2019-04-11T09:03:18.224Z,20800.00
2019-04-11T09:04:18.492Z,31648.00
2019-04-11T09:05:20.261Z,95680.00
2019-04-11T09:06:18.821Z,94560.00
2019-04-11T09:07:19.169Z,66560.00
2019-04-11T09:08:18.383Z,83552.00
2019-04-11T09:09:18.801Z,84000.00
2019-04-11T09:10:18.165Z,84768.00
2019-04-11T09:11:18.144Z,89408.00
2019-04-11T09:12:18.412Z,53632.00
2019-04-11T09:13:19.385Z,90560.00
2019-04-11T09:14:18.175Z,90208.00
2019-04-11T09:15:19.116Z,85792.00
2019-04-11T09:16:18.316Z,80000.00
2019-04-11T09:17:19.365Z,85024.00
2019-04-11T09:18:18.089Z,84928.00
2019-04-11T09:19:18.829Z,87904.00
2019-04-11T09:20:19.176Z,90848.00
2019-04-11T09:21:18.279Z,89664.00
2019-04-11T09:22:18.029Z,92192.00
2019-04-11T09:23:18.089Z,93920.00
2019-04-11T09:24:18.689Z,92288.00
2019-04-11T09:25:18.939Z,87904.00
2019-04-11T09:26:18.096Z,84672.00
2019-04-11T09:27:17.989Z,82432.00
2019-04-11T09:28:17.960Z,79872.00
2019-04-11T09:29:17.955Z,76192.00
2019-04-11T09:30:19.020Z,77856.00
2019-04-11T09:31:19.087Z,79520.00
2019-04-11T09:32:18.182Z,69920.00
2019-04-11T09:33:17.931Z,80672.00
2019-04-11T09:34:17.907Z,75808.00
2019-04-11T09:35:18.544Z,80320.00
2019-04-11T09:36:17.882Z,79040.00
2019-04-11T09:37:19.148Z,82848.00
2019-04-11T09:38:18.183Z,80480.00
2019-04-11T09:39:19.141Z,83744.00
2019-04-11T09:40:17.860Z,82912.00
2019-04-11T09:41:18.549Z,79424.00
2019-04-11T09:42:20.230Z,81664.00
2019-04-11T09:43:17.983Z,82400.00
2019-04-11T09:44:17.877Z,73952.00
2019-04-11T09:45:17.801Z,72992.00
2019-04-11T09:46:18.606Z,72160.00
2019-04-11T09:47:17.838Z,76224.00
2019-04-11T09:48:19.474Z,68576.00
2019-04-11T09:49:18.458Z,66848.00
2019-04-11T09:50:18.291Z,69920.00
2019-04-11T09:51:17.898Z,62624.00
2019-04-11T09:52:17.831Z,78208.00
2019-04-11T09:53:19.151Z,79872.00
2019-04-11T09:54:17.713Z,80448.00
2019-04-11T09:55:17.682Z,77600.00
2019-04-11T09:56:18.623Z,76960.00
2019-04-11T09:57:18.550Z,75424.00
2019-04-11T09:58:17.657Z,73056.00
2019-04-11T09:59:17.649Z,76768.00
2019-04-11T10:00:18.522Z,80896.00
2019-04-11T10:01:18.192Z,81920.00
2019-04-11T10:02:18.617Z,77760.00
2019-04-11T10:03:17.614Z,76544.00
2019-04-11T10:04:18.810Z,73344.00
2019-04-11T10:05:18.080Z,73184.00
2019-04-11T10:06:17.581Z,74368.00
2019-04-11T10:07:17.671Z,75072.00
2019-04-11T10:08:17.588Z,77408.00
2019-04-11T10:09:17.568Z,75872.00
2019-04-11T10:10:17.540Z,72352.00
2019-04-11T10:11:17.731Z,70272.00
2019-04-11T10:12:17.973Z,71904.00
2019-04-11T10:13:18.615Z,70816.00
2019-04-11T10:14:17.709Z,71392.00
2019-04-11T10:15:18.851Z,76736.00
2019-04-11T10:16:17.991Z,74112.00
2019-04-11T10:17:17.473Z,72800.00
2019-04-11T10:18:25.320Z,72800.00
2019-04-11T10:19:18.436Z,70400.00
2019-04-11T10:20:18.367Z,64896.00
2019-04-11T10:21:17.517Z,61312.00
2019-04-11T10:22:18.516Z,64288.00
2019-04-11T10:23:18.709Z,65440.00
2019-04-11T10:24:20.609Z,68448.00
2019-04-11T10:25:17.394Z,71328.00
2019-04-11T10:26:18.103Z,71424.00
2019-04-11T10:27:17.380Z,72608.00
2019-04-11T10:28:17.537Z,72320.00
2019-04-11T10:29:17.338Z,70208.00
2019-04-11T10:30:17.437Z,66592.00
2019-04-11T10:31:18.086Z,55744.00
2019-04-11T10:32:17.338Z,56608.00
2019-04-11T10:33:17.302Z,61568.00
2019-04-11T10:34:17.553Z,54880.00
2019-04-11T10:35:19.035Z,51168.00
2019-04-11T10:36:17.274Z,53408.00
2019-04-11T10:37:17.872Z,57824.00
2019-04-11T10:38:17.257Z,58432.00
2019-04-11T10:39:18.263Z,59584.00
2019-04-11T10:40:17.728Z,60864.00
2019-04-11T10:41:17.223Z,63424.00
2019-04-11T10:42:18.131Z,62592.00
2019-04-11T10:43:18.214Z,42560.00
2019-04-11T10:44:18.004Z,15636.00
2019-04-11T10:45:18.365Z,12004.00
2019-04-11T10:46:17.426Z,11544.00
2019-04-11T10:47:17.180Z,11300.00
2019-04-11T10:48:17.930Z,11140.00
2019-04-11T10:49:17.809Z,11096.00
2019-04-11T10:50:17.570Z,11076.00
2019-04-11T10:51:17.142Z,11052.00
2019-04-11T10:52:18.265Z,10984.00
2019-04-11T10:53:18.002Z,10940.00
2019-04-11T10:54:17.091Z,10904.00
2019-04-11T10:55:17.705Z,10844.00
2019-04-11T10:56:18.063Z,10736.00
2019-04-11T10:57:18.077Z,10644.00
2019-04-11T10:58:17.044Z,10600.00
2019-04-11T10:59:17.596Z,10500.00
2019-04-11T11:00:17.016Z,10364.00
2019-04-11T11:01:17.849Z,10216.00
2019-04-11T11:02:17.570Z,10128.00
2019-04-11T11:03:18.103Z,10052.00
2019-04-11T11:04:18.010Z,9944.00
2019-04-11T11:05:18.885Z,9844.00
2019-04-11T11:06:17.678Z,9764.00
2019-04-11T11:07:18.288Z,9672.00
2019-04-11T11:08:17.438Z,9648.00
2019-04-11T11:09:17.689Z,9628.00
2019-04-11T11:10:17.519Z,9628.00
2019-04-11T11:11:17.544Z,9608.00
2019-04-11T11:12:16.976Z,9576.00
2019-04-11T11:13:18.018Z,9552.00
2019-04-11T11:14:16.869Z,9500.00
2019-04-11T11:15:17.690Z,9404.00
2019-04-11T11:16:16.956Z,9312.00
2019-04-11T11:17:38.711Z,9240.00
2019-04-11T11:18:44.062Z,9164.00
2019-04-11T11:19:40.270Z,9144.00
2019-04-11T11:20:26.065Z,9092.00
2019-04-11T11:21:17.795Z,9016.00
2019-04-11T11:22:16.801Z,8972.00
2019-04-11T11:23:16.766Z,8932.00
2019-04-11T11:24:17.657Z,8888.00
2019-04-11T11:25:18.137Z,8912.00
2019-04-11T11:26:19.777Z,8916.00
2019-04-11T11:27:18.127Z,8876.00
2019-04-11T11:28:17.804Z,8816.00
2019-04-11T11:29:17.501Z,8804.00
2019-04-11T11:30:16.770Z,8788.00
2019-04-11T11:31:16.698Z,8716.00
2019-04-11T11:32:16.831Z,8624.00
2019-04-11T11:33:16.667Z,8580.00
2019-04-11T11:34:19.993Z,8564.00
2019-04-11T11:35:16.640Z,8500.00
2019-04-11T11:36:17.348Z,8428.00
2019-04-11T11:37:17.559Z,8384.00
2019-04-11T11:38:17.693Z,8324.00
2019-04-11T11:39:17.395Z,8304.00
2019-04-11T11:40:18.321Z,8248.00
2019-04-11T11:41:16.578Z,8168.00
2019-04-11T11:42:17.829Z,8132.00
2019-04-11T11:43:16.930Z,8124.00
2019-04-11T11:44:16.539Z,8116.00
2019-04-11T11:45:17.336Z,8092.00
2019-04-11T11:46:17.803Z,8104.00
2019-04-11T11:47:17.441Z,8104.00
2019-04-11T11:48:20.054Z,8072.00
2019-04-11T11:49:36.278Z,8068.00
2019-04-11T11:50:20.026Z,8060.00
2019-04-11T11:51:17.275Z,8044.00
2019-04-11T11:52:17.227Z,8012.00
2019-04-11T11:53:16.490Z,7992.00
2019-04-11T11:54:17.568Z,7996.00
2019-04-11T11:55:18.977Z,7988.00
2019-04-11T11:56:16.416Z,7976.00
2019-04-11T11:57:16.438Z,7944.00
2019-04-11T11:58:18.126Z,7912.00
2019-04-11T11:59:16.938Z,7940.00
2019-04-11T12:00:16.893Z,7928.00
2019-04-11T12:01:16.403Z,7920.00
2019-04-11T12:02:18.257Z,7944.00
2019-04-11T12:03:17.026Z,8092.00
2019-04-11T12:04:16.932Z,8084.00
2019-04-11T12:05:18.411Z,8076.00
2019-04-11T12:06:19.751Z,8068.00
2019-04-11T12:07:17.368Z,7876.00
2019-04-11T12:08:18.056Z,7832.00
2019-04-11T12:09:16.314Z,7748.00
2019-04-11T12:10:17.397Z,7676.00
2019-04-11T12:11:16.253Z,7584.00
2019-04-11T12:12:16.246Z,7484.00
2019-04-11T12:13:17.165Z,7400.00
2019-04-11T12:14:16.223Z,7316.00
2019-04-11T12:15:20.207Z,7224.00
2019-04-11T12:16:20.734Z,7156.00
2019-04-11T12:17:17.189Z,7076.00
2019-04-11T12:18:18.452Z,7028.00
2019-04-11T12:19:19.682Z,6968.00
2019-04-11T12:20:17.165Z,6920.00
2019-04-11T12:21:20.493Z,6860.00
2019-04-11T12:22:18.095Z,6788.00
2019-04-11T12:23:17.129Z,6684.00